sensor_id;sensor_type;location;lat;lon;timestamp;temperature;humidity
67557;DHT22;54387;53.526;49.300;2022-11-20T00:01:31;2.30;70.20
67557;DHT22;54387;53.526;49.300;2022-11-20T00:03:57;2.30;70.30
67557;DHT22;54387;53.526;49.300;2022-11-20T00:06:24;2.30;70.50
67557;DHT22;54387;53.526;49.300;2022-11-20T00:08:51;2.30;70.30
67557;DHT22;54387;53.526;49.300;2022-11-20T00:11:18;2.20;70.10
67557;DHT22;54387;53.526;49.300;2022-11-20T00:13:44;2.10;70.20
67557;DHT22;54387;53.526;49.300;2022-11-20T00:16:12;2.10;70.30
67557;DHT22;54387;53.526;49.300;2022-11-20T00:18:38;2.10;70.40
67557;DHT22;54387;53.526;49.300;2022-11-20T00:21:05;2.10;70.50
67557;DHT22;54387;53.526;49.300;2022-11-20T00:23:31;2.20;70.60
67557;DHT22;54387;53.526;49.300;2022-11-20T00:26:00;2.20;70.50
67557;DHT22;54387;53.526;49.300;2022-11-20T00:28:27;2.20;70.30
67557;DHT22;54387;53.526;49.300;2022-11-20T00:30:59;2.20;70.30
67557;DHT22;54387;53.526;49.300;2022-11-20T00:33:25;2.20;70.30
67557;DHT22;54387;53.526;49.300;2022-11-20T00:35:51;2.20;70.30
67557;DHT22;54387;53.526;49.300;2022-11-20T00:38:17;2.20;70.50
67557;DHT22;54387;53.526;49.300;2022-11-20T00:40:43;2.20;70.50
67557;DHT22;54387;53.526;49.300;2022-11-20T00:43:09;2.30;70.40
67557;DHT22;54387;53.526;49.300;2022-11-20T00:45:35;2.30;70.20
67557;DHT22;54387;53.526;49.300;2022-11-20T00:48:01;2.20;70.20
67557;DHT22;54387;53.526;49.300;2022-11-20T00:50:27;2.20;70.40
67557;DHT22;54387;53.526;49.300;2022-11-20T00:52:53;2.20;70.20
67557;DHT22;54387;53.526;49.300;2022-11-20T00:55:19;2.30;70.30
67557;DHT22;54387;53.526;49.300;2022-11-20T00:57:45;2.30;70.10
67557;DHT22;54387;53.526;49.300;2022-11-20T01:00:11;2.30;70.20
67557;DHT22;54387;53.526;49.300;2022-11-20T01:02:37;2.30;70.20
67557;DHT22;54387;53.526;49.300;2022-11-20T01:05:03;2.30;70.30
67557;DHT22;54387;53.526;49.300;2022-11-20T01:07:29;2.30;70.00
67557;DHT22;54387;53.526;49.300;2022-11-20T01:09:55;2.30;69.90
67557;DHT22;54387;53.526;49.300;2022-11-20T01:12:21;2.30;69.90
67557;DHT22;54387;53.526;49.300;2022-11-20T01:14:47;2.30;70.00
67557;DHT22;54387;53.526;49.300;2022-11-20T01:17:13;2.20;70.10
67557;DHT22;54387;53.526;49.300;2022-11-20T01:19:39;2.30;70.30
67557;DHT22;54387;53.526;49.300;2022-11-20T01:22:04;2.30;70.20
67557;DHT22;54387;53.526;49.300;2022-11-20T01:24:30;2.30;69.90
67557;DHT22;54387;53.526;49.300;2022-11-20T01:26:56;2.30;70.00
67557;DHT22;54387;53.526;49.300;2022-11-20T01:29:23;2.20;70.00
67557;DHT22;54387;53.526;49.300;2022-11-20T01:31:49;2.20;70.30
67557;DHT22;54387;53.526;49.300;2022-11-20T01:34:16;2.20;70.30
67557;DHT22;54387;53.526;49.300;2022-11-20T01:36:43;2.30;70.30
67557;DHT22;54387;53.526;49.300;2022-11-20T01:39:10;2.30;70.20
67557;DHT22;54387;53.526;49.300;2022-11-20T01:41:37;2.30;70.10
67557;DHT22;54387;53.526;49.300;2022-11-20T01:44:23;2.30;70.20
67557;DHT22;54387;53.526;49.300;2022-11-20T01:47:07;2.30;70.10
67557;DHT22;54387;53.526;49.300;2022-11-20T01:49:35;2.30;70.00
67557;DHT22;54387;53.526;49.300;2022-11-20T01:52:04;2.30;70.00
67557;DHT22;54387;53.526;49.300;2022-11-20T01:54:33;2.20;70.00
67557;DHT22;54387;53.526;49.300;2022-11-20T01:57:00;2.30;70.10
67557;DHT22;54387;53.526;49.300;2022-11-20T01:59:27;2.30;70.10
67557;DHT22;54387;53.526;49.300;2022-11-20T02:01:54;2.30;70.00
67557;DHT22;54387;53.526;49.300;2022-11-20T02:04:20;2.30;70.00
67557;DHT22;54387;53.526;49.300;2022-11-20T02:06:48;2.20;69.70
67557;DHT22;54387;53.526;49.300;2022-11-20T02:09:15;2.20;69.90
67557;DHT22;54387;53.526;49.300;2022-11-20T02:11:41;2.20;70.00
67557;DHT22;54387;53.526;49.300;2022-11-20T02:14:07;2.20;69.90
67557;DHT22;54387;53.526;49.300;2022-11-20T02:16:35;2.20;69.90
67557;DHT22;54387;53.526;49.300;2022-11-20T02:19:03;2.30;70.50
67557;DHT22;54387;53.526;49.300;2022-11-20T02:21:33;2.30;69.90
67557;DHT22;54387;53.526;49.300;2022-11-20T02:26:27;2.30;69.90
67557;DHT22;54387;53.526;49.300;2022-11-20T02:28:53;2.30;70.00
67557;DHT22;54387;53.526;49.300;2022-11-20T02:31:20;2.30;69.80
67557;DHT22;54387;53.526;49.300;2022-11-20T02:33:46;2.30;69.90
67557;DHT22;54387;53.526;49.300;2022-11-20T02:36:14;2.30;70.50
67557;DHT22;54387;53.526;49.300;2022-11-20T02:38:40;2.40;69.80
67557;DHT22;54387;53.526;49.300;2022-11-20T02:41:07;2.40;69.70
67557;DHT22;54387;53.526;49.300;2022-11-20T02:43:33;2.40;69.70
67557;DHT22;54387;53.526;49.300;2022-11-20T02:45:59;2.30;69.80
67557;DHT22;54387;53.526;49.300;2022-11-20T02:48:24;2.30;70.10
67557;DHT22;54387;53.526;49.300;2022-11-20T02:50:50;2.30;69.90
67557;DHT22;54387;53.526;49.300;2022-11-20T02:53:16;2.40;70.00
67557;DHT22;54387;53.526;49.300;2022-11-20T02:55:42;2.50;69.90
67557;DHT22;54387;53.526;49.300;2022-11-20T02:58:08;2.40;69.90
67557;DHT22;54387;53.526;49.300;2022-11-20T03:00:34;2.40;69.90
67557;DHT22;54387;53.526;49.300;2022-11-20T03:03:01;2.50;70.00
67557;DHT22;54387;53.526;49.300;2022-11-20T03:05:27;2.60;70.10
67557;DHT22;54387;53.526;49.300;2022-11-20T03:07:53;2.60;70.00
67557;DHT22;54387;53.526;49.300;2022-11-20T03:10:19;2.70;70.00
67557;DHT22;54387;53.526;49.300;2022-11-20T03:12:45;2.70;70.00
67557;DHT22;54387;53.526;49.300;2022-11-20T03:15:11;2.70;69.80
67557;DHT22;54387;53.526;49.300;2022-11-20T03:17:37;2.70;69.90
67557;DHT22;54387;53.526;49.300;2022-11-20T03:20:03;2.70;69.90
67557;DHT22;54387;53.526;49.300;2022-11-20T03:22:29;2.70;69.70
67557;DHT22;54387;53.526;49.300;2022-11-20T03:24:55;2.70;69.80
67557;DHT22;54387;53.526;49.300;2022-11-20T03:27:21;2.70;69.60
67557;DHT22;54387;53.526;49.300;2022-11-20T03:29:47;2.60;69.60
67557;DHT22;54387;53.526;49.300;2022-11-20T03:32:13;2.60;69.80
67557;DHT22;54387;53.526;49.300;2022-11-20T03:34:39;2.60;70.00
67557;DHT22;54387;53.526;49.300;2022-11-20T03:37:05;2.60;69.70
67557;DHT22;54387;53.526;49.300;2022-11-20T03:39:31;2.60;69.80
67557;DHT22;54387;53.526;49.300;2022-11-20T03:41:57;2.50;69.90
67557;DHT22;54387;53.526;49.300;2022-11-20T03:44:23;2.60;69.90
67557;DHT22;54387;53.526;49.300;2022-11-20T03:46:49;2.60;69.80
67557;DHT22;54387;53.526;49.300;2022-11-20T03:49:15;2.60;69.90
67557;DHT22;54387;53.526;49.300;2022-11-20T03:51:41;2.60;69.80
67557;DHT22;54387;53.526;49.300;2022-11-20T03:54:07;2.60;69.80
67557;DHT22;54387;53.526;49.300;2022-11-20T03:56:36;2.60;69.80
67557;DHT22;54387;53.526;49.300;2022-11-20T03:59:02;2.60;69.70
67557;DHT22;54387;53.526;49.300;2022-11-20T04:01:33;2.60;69.90
67557;DHT22;54387;53.526;49.300;2022-11-20T04:03:59;2.70;70.00
67557;DHT22;54387;53.526;49.300;2022-11-20T04:06:26;2.70;70.00
67557;DHT22;54387;53.526;49.300;2022-11-20T04:08:56;2.80;69.90
67557;DHT22;54387;53.526;49.300;2022-11-20T04:11:26;2.80;69.80
67557;DHT22;54387;53.526;49.300;2022-11-20T04:13:54;2.80;69.80
67557;DHT22;54387;53.526;49.300;2022-11-20T04:16:20;2.80;69.80
67557;DHT22;54387;53.526;49.300;2022-11-20T04:18:47;2.80;69.80
67557;DHT22;54387;53.526;49.300;2022-11-20T04:21:13;2.80;69.80
67557;DHT22;54387;53.526;49.300;2022-11-20T04:23:41;2.80;69.60
67557;DHT22;54387;53.526;49.300;2022-11-20T04:26:08;2.80;69.60
67557;DHT22;54387;53.526;49.300;2022-11-20T04:28:35;2.70;69.50
67557;DHT22;54387;53.526;49.300;2022-11-20T04:31:01;2.60;69.40
67557;DHT22;54387;53.526;49.300;2022-11-20T04:33:27;2.60;69.50
67557;DHT22;54387;53.526;49.300;2022-11-20T04:35:53;2.60;69.60
67557;DHT22;54387;53.526;49.300;2022-11-20T04:38:19;2.60;69.70
67557;DHT22;54387;53.526;49.300;2022-11-20T04:40:45;2.70;69.90
67557;DHT22;54387;53.526;49.300;2022-11-20T04:43:11;2.70;69.70
67557;DHT22;54387;53.526;49.300;2022-11-20T04:45:37;2.70;69.60
67557;DHT22;54387;53.526;49.300;2022-11-20T04:48:03;2.70;69.60
67557;DHT22;54387;53.526;49.300;2022-11-20T04:50:29;2.70;69.70
67557;DHT22;54387;53.526;49.300;2022-11-20T04:52:55;2.70;69.70
67557;DHT22;54387;53.526;49.300;2022-11-20T04:55:21;2.70;69.70
67557;DHT22;54387;53.526;49.300;2022-11-20T04:57:49;2.80;69.40
67557;DHT22;54387;53.526;49.300;2022-11-20T05:00:15;2.70;69.50
67557;DHT22;54387;53.526;49.300;2022-11-20T05:02:41;2.70;69.50
67557;DHT22;54387;53.526;49.300;2022-11-20T05:05:07;2.70;69.50
67557;DHT22;54387;53.526;49.300;2022-11-20T05:07:33;2.80;69.60
67557;DHT22;54387;53.526;49.300;2022-11-20T05:09:59;2.80;69.50
67557;DHT22;54387;53.526;49.300;2022-11-20T05:12:25;2.80;69.50
67557;DHT22;54387;53.526;49.300;2022-11-20T05:14:51;2.80;69.50
67557;DHT22;54387;53.526;49.300;2022-11-20T05:17:17;2.90;69.70
67557;DHT22;54387;53.526;49.300;2022-11-20T05:19:43;2.90;69.50
67557;DHT22;54387;53.526;49.300;2022-11-20T05:22:09;2.90;69.60
67557;DHT22;54387;53.526;49.300;2022-11-20T05:24:35;2.90;69.50
67557;DHT22;54387;53.526;49.300;2022-11-20T05:27:01;3.00;69.70
67557;DHT22;54387;53.526;49.300;2022-11-20T05:29:27;3.00;69.70
67557;DHT22;54387;53.526;49.300;2022-11-20T05:31:53;3.00;69.40
67557;DHT22;54387;53.526;49.300;2022-11-20T05:34:19;3.00;69.30
67557;DHT22;54387;53.526;49.300;2022-11-20T05:36:45;3.00;69.50
67557;DHT22;54387;53.526;49.300;2022-11-20T05:39:11;3.10;69.70
67557;DHT22;54387;53.526;49.300;2022-11-20T05:41:37;3.20;69.60
67557;DHT22;54387;53.526;49.300;2022-11-20T05:44:04;3.20;69.70
67557;DHT22;54387;53.526;49.300;2022-11-20T05:46:30;3.30;69.70
67557;DHT22;54387;53.526;49.300;2022-11-20T05:48:56;3.30;69.60
67557;DHT22;54387;53.526;49.300;2022-11-20T05:51:22;3.40;69.50
67557;DHT22;54387;53.526;49.300;2022-11-20T05:53:49;3.40;69.60
67557;DHT22;54387;53.526;49.300;2022-11-20T05:56:16;3.50;69.50
67557;DHT22;54387;53.526;49.300;2022-11-20T05:58:43;3.50;69.40
67557;DHT22;54387;53.526;49.300;2022-11-20T06:01:11;3.60;69.60
67557;DHT22;54387;53.526;49.300;2022-11-20T06:03:37;3.70;69.50
67557;DHT22;54387;53.526;49.300;2022-11-20T06:06:04;3.80;69.50
67557;DHT22;54387;53.526;49.300;2022-11-20T06:08:31;3.90;69.30
67557;DHT22;54387;53.526;49.300;2022-11-20T06:10:57;3.90;69.00
67557;DHT22;54387;53.526;49.300;2022-11-20T06:13:23;3.90;69.00
67557;DHT22;54387;53.526;49.300;2022-11-20T06:15:54;3.90;69.00
67557;DHT22;54387;53.526;49.300;2022-11-20T06:18:20;3.90;69.00
67557;DHT22;54387;53.526;49.300;2022-11-20T06:20:46;4.00;69.10
67557;DHT22;54387;53.526;49.300;2022-11-20T06:23:12;4.00;68.80
67557;DHT22;54387;53.526;49.300;2022-11-20T06:25:42;4.00;68.90
67557;DHT22;54387;53.526;49.300;2022-11-20T06:28:08;4.00;68.90
67557;DHT22;54387;53.526;49.300;2022-11-20T06:30:35;4.10;68.90
67557;DHT22;54387;53.526;49.300;2022-11-20T06:33:01;4.10;68.90
67557;DHT22;54387;53.526;49.300;2022-11-20T06:35:27;4.10;68.50
67557;DHT22;54387;53.526;49.300;2022-11-20T06:37:53;4.10;68.60
67557;DHT22;54387;53.526;49.300;2022-11-20T06:40:19;4.20;68.70
67557;DHT22;54387;53.526;49.300;2022-11-20T06:42:45;4.20;68.40
67557;DHT22;54387;53.526;49.300;2022-11-20T06:45:11;4.10;68.50
67557;DHT22;54387;53.526;49.300;2022-11-20T06:47:37;4.10;68.90
67557;DHT22;54387;53.526;49.300;2022-11-20T06:50:03;4.10;68.90
67557;DHT22;54387;53.526;49.300;2022-11-20T06:52:31;4.10;68.40
67557;DHT22;54387;53.526;49.300;2022-11-20T06:54:57;4.10;67.90
67557;DHT22;54387;53.526;49.300;2022-11-20T06:57:23;4.10;68.10
67557;DHT22;54387;53.526;49.300;2022-11-20T06:59:49;4.20;68.30
67557;DHT22;54387;53.526;49.300;2022-11-20T07:02:15;4.20;68.30
67557;DHT22;54387;53.526;49.300;2022-11-20T07:04:41;4.30;68.30
67557;DHT22;54387;53.526;49.300;2022-11-20T07:07:07;4.40;67.90
67557;DHT22;54387;53.526;49.300;2022-11-20T07:09:34;4.40;68.00
67557;DHT22;54387;53.526;49.300;2022-11-20T07:12:00;4.50;68.00
67557;DHT22;54387;53.526;49.300;2022-11-20T07:14:26;4.50;67.90
67557;DHT22;54387;53.526;49.300;2022-11-20T07:16:52;4.50;67.40
67557;DHT22;54387;53.526;49.300;2022-11-20T07:19:18;4.50;67.60
67557;DHT22;54387;53.526;49.300;2022-11-20T07:21:44;4.50;67.80
67557;DHT22;54387;53.526;49.300;2022-11-20T07:24:10;4.50;67.80
67557;DHT22;54387;53.526;49.300;2022-11-20T07:26:36;4.60;67.70
67557;DHT22;54387;53.526;49.300;2022-11-20T07:29:03;4.60;67.60
67557;DHT22;54387;53.526;49.300;2022-11-20T07:31:29;4.50;67.40
67557;DHT22;54387;53.526;49.300;2022-11-20T07:33:55;4.50;67.40
67557;DHT22;54387;53.526;49.300;2022-11-20T07:36:21;4.50;67.60
67557;DHT22;54387;53.526;49.300;2022-11-20T07:38:47;4.50;67.70
67557;DHT22;54387;53.526;49.300;2022-11-20T07:41:14;4.50;67.90
67557;DHT22;54387;53.526;49.300;2022-11-20T07:43:40;4.60;68.00
67557;DHT22;54387;53.526;49.300;2022-11-20T07:46:06;4.60;68.00
67557;DHT22;54387;53.526;49.300;2022-11-20T07:48:32;4.70;68.20
67557;DHT22;54387;53.526;49.300;2022-11-20T07:50:58;4.70;67.90
67557;DHT22;54387;53.526;49.300;2022-11-20T07:53:24;4.80;68.10
67557;DHT22;54387;53.526;49.300;2022-11-20T07:55:50;4.90;68.00
67557;DHT22;54387;53.526;49.300;2022-11-20T07:58:18;5.00;68.10
67557;DHT22;54387;53.526;49.300;2022-11-20T08:00:45;5.20;68.10
67557;DHT22;54387;53.526;49.300;2022-11-20T08:03:15;5.30;68.00
67557;DHT22;54387;53.526;49.300;2022-11-20T08:05:41;5.40;68.20
67557;DHT22;54387;53.526;49.300;2022-11-20T08:08:10;5.50;68.20
67557;DHT22;54387;53.526;49.300;2022-11-20T08:10:36;5.60;68.20
67557;DHT22;54387;53.526;49.300;2022-11-20T08:13:02;5.80;68.20
67557;DHT22;54387;53.526;49.300;2022-11-20T08:15:50;5.80;68.00
67557;DHT22;54387;53.526;49.300;2022-11-20T08:18:16;5.90;67.90
67557;DHT22;54387;53.526;49.300;2022-11-20T08:20:43;5.90;67.90
67557;DHT22;54387;53.526;49.300;2022-11-20T08:23:09;6.00;67.90
67557;DHT22;54387;53.526;49.300;2022-11-20T08:25:36;6.00;67.30
67557;DHT22;54387;53.526;49.300;2022-11-20T08:28:06;6.10;68.20
67557;DHT22;54387;53.526;49.300;2022-11-20T08:30:32;6.10;67.40
67557;DHT22;54387;53.526;49.300;2022-11-20T08:33:02;6.10;67.30
67557;DHT22;54387;53.526;49.300;2022-11-20T08:35:32;6.10;67.20
67557;DHT22;54387;53.526;49.300;2022-11-20T08:37:59;6.00;67.40
67557;DHT22;54387;53.526;49.300;2022-11-20T08:40:25;6.00;67.40
67557;DHT22;54387;53.526;49.300;2022-11-20T08:42:51;6.00;67.20
67557;DHT22;54387;53.526;49.300;2022-11-20T08:45:17;5.90;67.10
67557;DHT22;54387;53.526;49.300;2022-11-20T08:47:49;5.90;67.30
67557;DHT22;54387;53.526;49.300;2022-11-20T08:50:16;5.90;67.50
67557;DHT22;54387;53.526;49.300;2022-11-20T08:52:42;5.90;67.20
67557;DHT22;54387;53.526;49.300;2022-11-20T08:55:08;5.90;67.20
67557;DHT22;54387;53.526;49.300;2022-11-20T08:57:35;5.80;67.00
67557;DHT22;54387;53.526;49.300;2022-11-20T09:00:03;5.80;67.10
67557;DHT22;54387;53.526;49.300;2022-11-20T09:02:29;5.70;67.00
67557;DHT22;54387;53.526;49.300;2022-11-20T09:04:55;5.70;67.30
67557;DHT22;54387;53.526;49.300;2022-11-20T09:07:21;5.70;67.30
67557;DHT22;54387;53.526;49.300;2022-11-20T09:09:47;5.70;67.10
67557;DHT22;54387;53.526;49.300;2022-11-20T09:12:13;5.70;67.20
67557;DHT22;54387;53.526;49.300;2022-11-20T09:14:39;5.70;67.30
67557;DHT22;54387;53.526;49.300;2022-11-20T09:17:05;5.80;67.20
67557;DHT22;54387;53.526;49.300;2022-11-20T09:19:33;5.80;67.20
67557;DHT22;54387;53.526;49.300;2022-11-20T09:21:59;5.70;66.90
67557;DHT22;54387;53.526;49.300;2022-11-20T09:24:26;5.70;67.00
67557;DHT22;54387;53.526;49.300;2022-11-20T09:26:52;5.60;67.00
67557;DHT22;54387;53.526;49.300;2022-11-20T09:29:18;5.50;67.10
67557;DHT22;54387;53.526;49.300;2022-11-20T09:31:49;5.50;67.10
67557;DHT22;54387;53.526;49.300;2022-11-20T09:34:19;5.50;67.30
67557;DHT22;54387;53.526;49.300;2022-11-20T09:36:45;5.50;67.20
67557;DHT22;54387;53.526;49.300;2022-11-20T09:39:11;5.50;67.00
67557;DHT22;54387;53.526;49.300;2022-11-20T09:55:10;5.60;67.20
67557;DHT22;54387;53.526;49.300;2022-11-20T09:57:40;5.60;67.30
67557;DHT22;54387;53.526;49.300;2022-11-20T10:00:11;5.70;67.10
67557;DHT22;54387;53.526;49.300;2022-11-20T10:08:16;5.50;66.90
67557;DHT22;54387;53.526;49.300;2022-11-20T10:10:45;5.40;66.90
67557;DHT22;54387;53.526;49.300;2022-11-20T10:20:48;5.30;67.20
67557;DHT22;54387;53.526;49.300;2022-11-20T10:28:30;5.20;67.20
67557;DHT22;54387;53.526;49.300;2022-11-20T10:31:07;5.20;67.20
67557;DHT22;54387;53.526;49.300;2022-11-20T10:33:41;5.20;67.10
67557;DHT22;54387;53.526;49.300;2022-11-20T10:36:19;5.20;67.20
67557;DHT22;54387;53.526;49.300;2022-11-20T10:39:20;5.20;67.30
67557;DHT22;54387;53.526;49.300;2022-11-20T10:41:40;5.20;67.40
67557;DHT22;54387;53.526;49.300;2022-11-20T10:44:11;5.30;67.40
67557;DHT22;54387;53.526;49.300;2022-11-20T10:46:47;5.40;67.40
67557;DHT22;54387;53.526;49.300;2022-11-20T10:49:14;5.50;67.40
67557;DHT22;54387;53.526;49.300;2022-11-20T10:56:56;5.40;66.70
67557;DHT22;54387;53.526;49.300;2022-11-20T11:01:54;5.20;66.70
67557;DHT22;54387;53.526;49.300;2022-11-20T11:04:28;5.10;66.90
67557;DHT22;54387;53.526;49.300;2022-11-20T11:07:01;5.00;67.10
67557;DHT22;54387;53.526;49.300;2022-11-20T11:09:33;5.10;67.00
67557;DHT22;54387;53.526;49.300;2022-11-20T11:12:01;5.10;66.90
67557;DHT22;54387;53.526;49.300;2022-11-20T11:14:27;5.00;67.00
67557;DHT22;54387;53.526;49.300;2022-11-20T11:16:56;4.90;67.00
67557;DHT22;54387;53.526;49.300;2022-11-20T11:19:22;4.90;67.00
67557;DHT22;54387;53.526;49.300;2022-11-20T11:21:53;4.90;67.00
67557;DHT22;54387;53.526;49.300;2022-11-20T11:24:20;4.80;66.90
67557;DHT22;54387;53.526;49.300;2022-11-20T11:27:11;4.70;67.00
67557;DHT22;54387;53.526;49.300;2022-11-20T11:29:36;4.60;66.90
67557;DHT22;54387;53.526;49.300;2022-11-20T11:32:06;4.50;67.00
67557;DHT22;54387;53.526;49.300;2022-11-20T11:34:32;4.40;67.00
67557;DHT22;54387;53.526;49.300;2022-11-20T11:36:59;4.40;67.10
67557;DHT22;54387;53.526;49.300;2022-11-20T11:39:26;4.40;67.00
67557;DHT22;54387;53.526;49.300;2022-11-20T11:41:53;4.40;67.00
67557;DHT22;54387;53.526;49.300;2022-11-20T11:44:20;4.40;67.00
67557;DHT22;54387;53.526;49.300;2022-11-20T11:47:08;4.30;67.10
67557;DHT22;54387;53.526;49.300;2022-11-20T11:49:35;4.30;67.10
67557;DHT22;54387;53.526;49.300;2022-11-20T11:54:40;4.30;67.00
67557;DHT22;54387;53.526;49.300;2022-11-20T11:57:20;4.20;67.00
67557;DHT22;54387;53.526;49.300;2022-11-20T12:00:09;4.20;67.00
67557;DHT22;54387;53.526;49.300;2022-11-20T12:03:00;4.10;67.00
67557;DHT22;54387;53.526;49.300;2022-11-20T12:05:30;4.10;67.10
67557;DHT22;54387;53.526;49.300;2022-11-20T12:08:11;4.00;67.00
67557;DHT22;54387;53.526;49.300;2022-11-20T12:10:46;4.00;67.00
67557;DHT22;54387;53.526;49.300;2022-11-20T12:13:20;4.00;67.00
67557;DHT22;54387;53.526;49.300;2022-11-20T12:15:47;3.90;67.10
67557;DHT22;54387;53.526;49.300;2022-11-20T12:18:17;3.90;67.20
67557;DHT22;54387;53.526;49.300;2022-11-20T12:27:03;3.90;67.20
67557;DHT22;54387;53.526;49.300;2022-11-20T12:37:16;3.80;67.20
67557;DHT22;54387;53.526;49.300;2022-11-20T12:39:46;3.80;67.40
67557;DHT22;54387;53.526;49.300;2022-11-20T12:52:53;3.80;67.30
67557;DHT22;54387;53.526;49.300;2022-11-20T12:58:00;3.70;67.30
67557;DHT22;54387;53.526;49.300;2022-11-20T13:00:31;3.70;67.40
67557;DHT22;54387;53.526;49.300;2022-11-20T13:08:20;3.70;67.40
67557;DHT22;54387;53.526;49.300;2022-11-20T13:15:56;3.60;67.40
67557;DHT22;54387;53.526;49.300;2022-11-20T13:18:25;3.60;67.40
67557;DHT22;54387;53.526;49.300;2022-11-20T13:20:51;3.50;67.30
67557;DHT22;54387;53.526;49.300;2022-11-20T13:23:24;3.50;67.40
67557;DHT22;54387;53.526;49.300;2022-11-20T13:25:52;3.50;67.40
67557;DHT22;54387;53.526;49.300;2022-11-20T13:28:29;3.50;67.40
67557;DHT22;54387;53.526;49.300;2022-11-20T13:30:55;3.50;67.40
67557;DHT22;54387;53.526;49.300;2022-11-20T13:33:27;3.40;67.30
67557;DHT22;54387;53.526;49.300;2022-11-20T13:36:47;3.30;67.40
67557;DHT22;54387;53.526;49.300;2022-11-20T13:38:44;3.30;67.50
67557;DHT22;54387;53.526;49.300;2022-11-20T13:41:11;3.30;67.60
67557;DHT22;54387;53.526;49.300;2022-11-20T13:43:58;3.30;67.70
67557;DHT22;54387;53.526;49.300;2022-11-20T13:46:34;3.30;67.70
67557;DHT22;54387;53.526;49.300;2022-11-20T13:49:05;3.30;67.70
67557;DHT22;54387;53.526;49.300;2022-11-20T13:51:49;3.40;67.70
67557;DHT22;54387;53.526;49.300;2022-11-20T13:57:24;3.50;67.80
67557;DHT22;54387;53.526;49.300;2022-11-20T14:02:19;3.60;67.70
67557;DHT22;54387;53.526;49.300;2022-11-20T14:04:47;3.60;67.70
67557;DHT22;54387;53.526;49.300;2022-11-20T14:07:18;3.60;67.60
67557;DHT22;54387;53.526;49.300;2022-11-20T14:09:51;3.60;67.60
67557;DHT22;54387;53.526;49.300;2022-11-20T14:12:19;3.60;67.60
67557;DHT22;54387;53.526;49.300;2022-11-20T14:14:52;3.60;67.60
67557;DHT22;54387;53.526;49.300;2022-11-20T14:17:23;3.60;67.60
67557;DHT22;54387;53.526;49.300;2022-11-20T14:19:51;3.50;67.50
67557;DHT22;54387;53.526;49.300;2022-11-20T14:22:35;3.50;67.50
67557;DHT22;54387;53.526;49.300;2022-11-20T14:25:03;3.40;67.70
67557;DHT22;54387;53.526;49.300;2022-11-20T14:27:32;3.40;67.70
67557;DHT22;54387;53.526;49.300;2022-11-20T14:30:00;3.40;67.70
67557;DHT22;54387;53.526;49.300;2022-11-20T14:32:27;3.40;67.80
67557;DHT22;54387;53.526;49.300;2022-11-20T14:34:53;3.30;67.80
67557;DHT22;54387;53.526;49.300;2022-11-20T14:37:21;3.40;67.90
67557;DHT22;54387;53.526;49.300;2022-11-20T14:39:52;3.40;67.80
67557;DHT22;54387;53.526;49.300;2022-11-20T14:42:19;3.40;67.70
67557;DHT22;54387;53.526;49.300;2022-11-20T14:44:45;3.40;67.70
67557;DHT22;54387;53.526;49.300;2022-11-20T14:47:14;3.40;67.70
67557;DHT22;54387;53.526;49.300;2022-11-20T14:49:43;3.40;67.70
67557;DHT22;54387;53.526;49.300;2022-11-20T14:52:10;3.30;67.80
67557;DHT22;54387;53.526;49.300;2022-11-20T14:54:44;3.40;67.80
67557;DHT22;54387;53.526;49.300;2022-11-20T14:57:19;3.40;67.80
67557;DHT22;54387;53.526;49.300;2022-11-20T14:59:46;3.40;67.70
67557;DHT22;54387;53.526;49.300;2022-11-20T15:02:12;3.40;67.80
67557;DHT22;54387;53.526;49.300;2022-11-20T15:04:45;3.40;67.90
67557;DHT22;54387;53.526;49.300;2022-11-20T15:07:11;3.50;67.90
67557;DHT22;54387;53.526;49.300;2022-11-20T15:12:31;3.60;67.80
67557;DHT22;54387;53.526;49.300;2022-11-20T15:14:57;3.60;67.70
67557;DHT22;54387;53.526;49.300;2022-11-20T15:17:24;3.60;67.70
67557;DHT22;54387;53.526;49.300;2022-11-20T15:19:50;3.60;67.70
67557;DHT22;54387;53.526;49.300;2022-11-20T15:22:16;3.70;67.70
67557;DHT22;54387;53.526;49.300;2022-11-20T15:24:42;3.70;67.70
67557;DHT22;54387;53.526;49.300;2022-11-20T15:27:09;3.70;67.60
67557;DHT22;54387;53.526;49.300;2022-11-20T15:29:35;3.70;67.60
67557;DHT22;54387;53.526;49.300;2022-11-20T15:32:01;3.60;67.60
67557;DHT22;54387;53.526;49.300;2022-11-20T15:34:27;3.60;67.60
67557;DHT22;54387;53.526;49.300;2022-11-20T15:36:53;3.50;67.70
67557;DHT22;54387;53.526;49.300;2022-11-20T15:39:20;3.50;67.70
67557;DHT22;54387;53.526;49.300;2022-11-20T15:41:46;3.50;67.70
67557;DHT22;54387;53.526;49.300;2022-11-20T15:44:12;3.50;67.80
67557;DHT22;54387;53.526;49.300;2022-11-20T15:46:39;3.50;67.70
67557;DHT22;54387;53.526;49.300;2022-11-20T15:49:11;3.50;67.80
67557;DHT22;54387;53.526;49.300;2022-11-20T15:51:38;3.60;67.80
67557;DHT22;54387;53.526;49.300;2022-11-20T15:54:09;3.60;67.70
67557;DHT22;54387;53.526;49.300;2022-11-20T15:56:36;3.60;67.70
67557;DHT22;54387;53.526;49.300;2022-11-20T15:59:04;3.60;67.70
67557;DHT22;54387;53.526;49.300;2022-11-20T16:01:30;3.60;67.70
67557;DHT22;54387;53.526;49.300;2022-11-20T16:03:56;3.60;67.60
67557;DHT22;54387;53.526;49.300;2022-11-20T16:06:22;3.60;67.60
67557;DHT22;54387;53.526;49.300;2022-11-20T16:08:48;3.60;67.50
67557;DHT22;54387;53.526;49.300;2022-11-20T16:11:15;3.50;67.60
67557;DHT22;54387;53.526;49.300;2022-11-20T16:13:41;3.50;67.70
67557;DHT22;54387;53.526;49.300;2022-11-20T16:18:56;3.60;67.70
67557;DHT22;54387;53.526;49.300;2022-11-20T16:21:23;3.60;67.80
67557;DHT22;54387;53.526;49.300;2022-11-20T16:23:59;3.60;67.80
67557;DHT22;54387;53.526;49.300;2022-11-20T16:26:25;3.60;68.30
67557;DHT22;54387;53.526;49.300;2022-11-20T16:28:51;3.60;67.70
67557;DHT22;54387;53.526;49.300;2022-11-20T16:31:18;3.60;67.70
67557;DHT22;54387;53.526;49.300;2022-11-20T16:33:51;3.60;67.70
67557;DHT22;54387;53.526;49.300;2022-11-20T16:36:18;3.60;67.80
67557;DHT22;54387;53.526;49.300;2022-11-20T16:38:55;3.60;67.70
67557;DHT22;54387;53.526;49.300;2022-11-20T16:41:22;3.60;67.70
67557;DHT22;54387;53.526;49.300;2022-11-20T16:43:49;3.60;67.70
67557;DHT22;54387;53.526;49.300;2022-11-20T16:46:17;3.70;67.80
67557;DHT22;54387;53.526;49.300;2022-11-20T16:48:44;3.70;67.70
67557;DHT22;54387;53.526;49.300;2022-11-20T16:51:11;3.70;67.70
67557;DHT22;54387;53.526;49.300;2022-11-20T16:53:38;3.70;67.70
67557;DHT22;54387;53.526;49.300;2022-11-20T16:56:11;3.70;67.70
67557;DHT22;54387;53.526;49.300;2022-11-20T16:58:38;3.70;67.70
67557;DHT22;54387;53.526;49.300;2022-11-20T17:01:05;3.70;67.80
67557;DHT22;54387;53.526;49.300;2022-11-20T17:03:32;3.70;67.70
67557;DHT22;54387;53.526;49.300;2022-11-20T17:05:58;3.70;67.70
67557;DHT22;54387;53.526;49.300;2022-11-20T17:08:25;3.60;67.60